createdAt,value
2023-02-11T00:01:24.410Z,34.5
2023-02-11T00:06:24.503Z,34.4
2023-02-11T00:11:24.585Z,34.2
2023-02-11T00:16:24.529Z,34.2
2023-02-11T00:21:24.483Z,33.7
2023-02-11T00:26:24.929Z,33.4
2023-02-11T00:31:24.635Z,32.5
2023-02-11T00:36:24.476Z,32.1
2023-02-11T00:41:25.122Z,32.1
2023-02-11T00:46:24.604Z,32.1
2023-02-11T00:51:24.433Z,32.5
2023-02-11T00:56:24.448Z,33.5
2023-02-11T01:01:24.869Z,33.5
2023-02-11T01:06:25.950Z,33.5
2023-02-11T01:11:24.566Z,33.5
2023-02-11T01:21:27.907Z,30.6
2023-02-11T01:26:24.660Z,30.3
2023-02-11T01:31:24.661Z,30.2
2023-02-11T01:36:24.628Z,30.3
2023-02-11T01:41:24.537Z,30.6
2023-02-11T01:46:24.794Z,30.6
2023-02-11T01:51:25.012Z,30.6
2023-02-11T01:56:24.626Z,29.5
2023-02-11T02:01:24.561Z,29.5
2023-02-11T02:06:24.517Z,29.5
2023-02-11T02:11:24.529Z,29.1
2023-02-11T02:16:24.533Z,28.9
2023-02-11T02:21:24.621Z,28.9
2023-02-11T02:26:24.509Z,29.1
2023-02-11T02:31:24.506Z,28.9
2023-02-11T02:36:24.562Z,28.4
2023-02-11T02:41:24.511Z,28.4
2023-02-11T02:46:25.099Z,28.3
2023-02-11T02:51:24.463Z,28.3
2023-02-11T02:56:24.512Z,27.5
2023-02-11T03:01:24.502Z,27.5
2023-02-11T03:06:24.511Z,27.3
2023-02-11T03:11:24.568Z,27.3
2023-02-11T03:16:24.553Z,27.1
2023-02-11T03:21:24.495Z,27
2023-02-11T03:26:24.549Z,27
2023-02-11T03:31:24.602Z,26.7
2023-02-11T03:36:24.805Z,26.7
2023-02-11T03:41:24.504Z,26.7
2023-02-11T03:46:24.530Z,26.7
2023-02-11T03:51:24.622Z,26.7
2023-02-11T04:01:24.610Z,26.3
2023-02-11T04:06:25.240Z,26.3
2023-02-11T04:11:24.470Z,26
2023-02-11T04:16:24.559Z,25.9
2023-02-11T04:21:24.487Z,25.9
2023-02-11T04:26:24.537Z,25.3
2023-02-11T04:31:24.676Z,24.6
2023-02-11T04:36:26.608Z,24.4
2023-02-11T04:41:24.507Z,23
2023-02-11T04:46:24.600Z,21.6
2023-02-11T04:51:24.504Z,21.6
2023-02-11T04:56:24.798Z,21.4
2023-02-11T05:01:24.643Z,21.3
2023-02-11T05:06:24.527Z,21.2
2023-02-11T05:11:24.563Z,21.2
2023-02-11T05:16:24.623Z,20.8
2023-02-11T05:21:24.568Z,20.7
2023-02-11T05:26:24.602Z,20.4
2023-02-11T05:31:24.584Z,20.7
2023-02-11T05:36:24.554Z,20.7
2023-02-11T05:41:24.551Z,20.4
2023-02-11T05:46:24.627Z,20
2023-02-11T05:51:24.523Z,19.3
2023-02-11T05:56:24.569Z,18.7
2023-02-11T06:01:24.675Z,18.5
2023-02-11T06:06:24.550Z,18.5
2023-02-11T06:11:24.533Z,18.7
2023-02-11T06:16:24.543Z,19.3
2023-02-11T06:21:42.693Z,18.6
2023-02-11T06:26:24.481Z,18.6
2023-02-11T06:31:24.620Z,18.6
2023-02-11T06:36:24.473Z,19.3
2023-02-11T06:41:24.718Z,18.6
2023-02-11T06:46:24.602Z,18.2
2023-02-11T06:51:24.467Z,17.7
2023-02-11T06:56:24.495Z,17.6
2023-02-11T07:01:24.579Z,17.6
2023-02-11T07:06:24.464Z,18.2
2023-02-11T07:11:24.492Z,17.6
2023-02-11T07:16:24.620Z,17.5
2023-02-11T07:21:24.498Z,17.5
2023-02-11T07:26:24.487Z,16.2
2023-02-11T07:31:24.577Z,16.2
2023-02-11T07:36:24.574Z,16.1
2023-02-11T07:41:24.532Z,16
2023-02-11T07:46:24.582Z,16
2023-02-11T07:51:24.722Z,15.7
2023-02-11T07:56:24.494Z,15.4
2023-02-11T08:01:24.567Z,15
2023-02-11T08:06:24.536Z,14.5
2023-02-11T08:16:24.550Z,13.5
2023-02-11T08:21:24.482Z,13.9
2023-02-11T08:26:24.514Z,13.5
2023-02-11T08:31:24.605Z,13.6
2023-02-11T08:36:24.495Z,13.6
2023-02-11T08:41:24.542Z,13.55
2023-02-11T08:46:24.670Z,13.5
2023-02-11T08:51:24.515Z,13.4
2023-02-11T08:56:24.498Z,13.3
2023-02-11T09:01:24.524Z,13.3
2023-02-11T09:06:24.517Z,12.6
2023-02-11T09:11:24.482Z,12.5
2023-02-11T09:16:24.701Z,12.5
2023-02-11T09:21:24.528Z,12.4
2023-02-11T09:26:24.496Z,12.4
2023-02-11T09:31:24.921Z,12.4
2023-02-11T09:36:24.600Z,12.4
2023-02-11T09:41:24.561Z,12.4
2023-02-11T09:46:24.638Z,12.4
2023-02-11T09:51:24.482Z,12.4
2023-02-11T09:56:24.521Z,12.4
2023-02-11T10:01:24.545Z,12.2
2023-02-11T10:06:24.566Z,12.2
2023-02-11T10:11:32.181Z,12.2
2023-02-11T10:16:24.858Z,11.7
2023-02-11T10:21:24.518Z,11.7
2023-02-11T10:26:24.545Z,11.7
2023-02-11T10:31:25.787Z,12.2
2023-02-11T10:36:24.640Z,12.2
2023-02-11T10:41:24.522Z,12.2
2023-02-11T10:46:24.629Z,12.2
2023-02-11T10:51:24.540Z,12.2
2023-02-11T10:56:24.564Z,12.2
2023-02-11T11:01:27.662Z,12.2
2023-02-11T11:06:24.642Z,12.2
2023-02-11T11:11:24.557Z,12.2
2023-02-11T11:16:24.652Z,12.2
2023-02-11T11:21:24.596Z,12.2
2023-02-11T11:26:24.528Z,12.2
2023-02-11T11:31:24.671Z,12.2
2023-02-11T11:36:24.579Z,12.2
2023-02-11T11:41:24.534Z,12.2
2023-02-11T11:46:24.697Z,12.2
2023-02-11T11:51:24.671Z,12.4
2023-02-11T11:56:24.474Z,12.6
2023-02-11T12:01:24.693Z,13
2023-02-11T12:06:24.618Z,12.7
2023-02-11T12:11:24.570Z,13
2023-02-11T12:16:24.551Z,13.1
2023-02-11T12:21:29.482Z,13.3
2023-02-11T12:26:30.532Z,13.3
2023-02-11T12:31:29.567Z,13.8
2023-02-11T12:36:29.601Z,13.3
2023-02-11T12:41:29.745Z,13.3
2023-02-11T12:46:29.509Z,13.3
2023-02-11T12:51:29.517Z,12.1
2023-02-11T12:56:29.482Z,11.8
2023-02-11T13:01:29.532Z,11.8
2023-02-11T13:06:29.555Z,11.8
2023-02-11T13:11:29.528Z,12
2023-02-11T13:16:29.632Z,11.7
2023-02-11T13:21:30.010Z,11.7
2023-02-11T13:26:29.575Z,11.7
2023-02-11T13:31:29.547Z,11.7
2023-02-11T13:36:29.528Z,11.7
2023-02-11T13:41:29.526Z,11.7
2023-02-11T13:46:29.580Z,11.7
2023-02-11T13:51:29.532Z,11.6
2023-02-11T13:56:29.503Z,11.7
2023-02-11T14:01:29.522Z,11.7
2023-02-11T14:06:29.511Z,11.9
2023-02-11T14:11:30.549Z,12.3
2023-02-11T14:16:38.554Z,11.9
2023-02-11T14:21:29.570Z,12.3
2023-02-11T14:26:29.493Z,12.3
2023-02-11T14:31:29.681Z,11.8
2023-02-11T14:36:29.504Z,12.3
2023-02-11T14:41:29.520Z,11.8
2023-02-11T14:46:29.578Z,11.8
2023-02-11T14:51:29.511Z,11.8
2023-02-11T14:56:30.542Z,11.8
2023-02-11T15:01:29.564Z,12.3
2023-02-11T15:06:29.516Z,12.9
2023-02-11T15:11:29.536Z,13.9
2023-02-11T15:16:29.523Z,13.9
2023-02-11T15:21:29.580Z,13.9
2023-02-11T15:26:29.607Z,13.9
2023-02-11T15:31:30.763Z,13.9
2023-02-11T15:36:29.524Z,13.9
2023-02-11T15:41:29.524Z,13.8
2023-02-11T15:46:30.034Z,13.8
2023-02-11T15:51:29.548Z,13.9
2023-02-11T15:56:29.590Z,13.9
2023-02-11T16:01:33.961Z,15.5
2023-02-11T16:06:29.519Z,15.7
2023-02-11T16:11:29.594Z,16.8
2023-02-11T16:16:29.563Z,17.1
2023-02-11T16:21:29.538Z,17.1
2023-02-11T16:26:29.569Z,17.1
2023-02-11T16:31:29.597Z,16.8
2023-02-11T16:36:29.499Z,16.5
2023-02-11T16:41:29.547Z,16.4
2023-02-11T16:46:29.701Z,16.1
2023-02-11T16:51:29.603Z,16.1
2023-02-11T16:56:29.568Z,16.4
2023-02-11T17:01:29.654Z,16.5
2023-02-11T17:06:29.608Z,16.5
2023-02-11T17:11:29.526Z,17.5
2023-02-11T17:16:29.709Z,17.5
2023-02-11T17:21:32.583Z,17.5
2023-02-11T17:26:29.543Z,17.5
2023-02-11T17:31:29.571Z,16.8
2023-02-11T17:36:29.591Z,16.4
2023-02-11T17:41:29.564Z,16.4
2023-02-11T17:46:29.538Z,15.9
2023-02-11T17:51:29.533Z,16.4
2023-02-11T17:56:29.572Z,16.8
2023-02-11T18:01:29.726Z,17
2023-02-11T18:06:29.553Z,17.5
2023-02-11T18:11:29.592Z,19.2
2023-02-11T18:16:29.701Z,21.8
2023-02-11T18:21:29.608Z,21.8
2023-02-11T18:26:29.564Z,21.8
2023-02-11T18:31:29.610Z,21.3
2023-02-11T18:36:29.559Z,21.3
2023-02-11T18:41:29.575Z,19.5
2023-02-11T18:46:29.643Z,19.4
2023-02-11T18:51:29.549Z,19.4
2023-02-11T18:56:29.566Z,19.4
2023-02-11T19:01:29.628Z,19.4
2023-02-11T19:06:29.569Z,19.4
2023-02-11T19:11:29.538Z,19.4
2023-02-11T19:16:29.596Z,19.4
2023-02-11T19:21:29.644Z,20.2
2023-02-11T19:26:29.643Z,20.4
2023-02-11T19:31:29.615Z,20.4
2023-02-11T19:36:30.587Z,20.2
2023-02-11T19:41:29.615Z,20.2
2023-02-11T19:46:30.612Z,20.4
2023-02-11T19:51:29.563Z,20.7
2023-02-11T19:56:29.585Z,20.8
2023-02-11T20:01:29.683Z,20.7
2023-02-11T20:06:29.597Z,20.7
2023-02-11T20:11:29.582Z,20.8
2023-02-11T20:16:47.307Z,20.8
2023-02-11T20:21:29.583Z,20.7
2023-02-11T20:31:29.679Z,22
2023-02-11T20:36:30.645Z,21.1
2023-02-11T20:41:29.845Z,22
2023-02-11T20:46:29.646Z,22.05
2023-02-11T20:51:29.630Z,22
2023-02-11T20:56:29.605Z,22.05
2023-02-11T21:01:29.637Z,22.1
2023-02-11T21:06:29.593Z,22.9
2023-02-11T21:11:29.577Z,23.7
2023-02-11T21:16:29.731Z,23.7
2023-02-11T21:21:29.862Z,23.7
2023-02-11T21:26:29.651Z,23.7
2023-02-11T21:31:29.713Z,23
2023-02-11T21:36:29.598Z,22.7
2023-02-11T21:41:29.620Z,21.8
2023-02-11T21:46:29.703Z,21.8
2023-02-11T21:51:29.616Z,21.8
2023-02-11T21:56:29.668Z,21.8
2023-02-11T22:01:29.633Z,21.8
2023-02-11T22:06:29.620Z,21.8
2023-02-11T22:11:29.655Z,21.8
2023-02-11T22:16:29.671Z,22
2023-02-11T22:21:30.189Z,22.4
2023-02-11T22:26:29.641Z,22.4
2023-02-11T22:31:29.735Z,21.5
2023-02-11T22:36:29.703Z,21.5
2023-02-11T22:41:29.683Z,22.6
2023-02-11T22:46:29.616Z,22.8
2023-02-11T22:51:29.650Z,23.3
2023-02-11T22:56:29.636Z,31.7
2023-02-11T23:01:29.653Z,31.7
2023-02-11T23:06:30.646Z,31.7
2023-02-11T23:11:31.172Z,31.7
2023-02-11T23:16:29.729Z,29.6
2023-02-11T23:21:29.606Z,26.8
2023-02-11T23:26:29.705Z,25.9
2023-02-11T23:31:30.012Z,25.6
2023-02-11T23:36:29.648Z,25
2023-02-11T23:41:30.104Z,24.9
2023-02-11T23:46:29.684Z,24.4
2023-02-11T23:51:29.642Z,24.2
2023-02-11T23:56:29.680Z,22.8
